Time;durP1;ratioP1;P1;durP2;ratioP2;P2;SDS_P1;SDS_P2;PMS_P1;PMS_P2;Temp;Humidity;BMP_temperature;BMP_pressure;BME280_temperature;BME280_humidity;BME280_pressure;Samples;Min_cycle;Max_cycle;Signal;HPM_P1;HPM_P2
2023/02/15 00:01:33;;;;;;;66.25;37.38;;;2.00;99.90;;;;;;5033960;28;20018;-85
2023/02/15 00:03:59;;;;;;;72.03;39.08;;;1.90;99.90;;;;;;5033917;28;20029;-85
2023/02/15 00:06:25;;;;;;;62.13;32.88;;;1.90;99.90;;;;;;5034346;28;20367;-82
2023/02/15 00:08:51;;;;;;;46.47;23.70;;;1.90;99.90;;;;;;5033853;28;20017;-82
2023/02/15 00:14:03;;;;;;;54.85;30.85;;;1.90;99.90;;;;;;5035123;28;20041;-81
2023/02/15 00:16:29;;;;;;;57.40;32.17;;;1.90;99.90;;;;;;5033895;28;20445;-81
2023/02/15 00:18:55;;;;;;;104.07;51.28;;;1.90;99.90;;;;;;5035311;28;20029;-81
2023/02/15 00:21:20;;;;;;;53.78;30.10;;;1.90;99.90;;;;;;5034326;28;20084;-81
2023/02/15 00:23:46;;;;;;;55.50;26.65;;;1.90;99.90;;;;;;5035037;28;20080;-81
2023/02/15 00:26:12;;;;;;;51.42;27.40;;;1.90;99.90;;;;;;5034196;28;20449;-81
2023/02/15 00:28:38;;;;;;;42.13;22.98;;;1.90;99.90;;;;;;5033629;28;20542;-80
2023/02/15 00:31:09;;;;;;;44.47;24.02;;;1.90;99.90;;;;;;5035024;28;20021;-81
2023/02/15 00:33:35;;;;;;;42.25;22.35;;;1.90;99.90;;;;;;5033942;28;20035;-81
2023/02/15 00:36:02;;;;;;;47.78;25.42;;;1.90;99.90;;;;;;5034973;28;20052;-82
2023/02/15 00:38:29;;;;;;;46.47;23.58;;;1.90;99.90;;;;;;5034655;28;20099;-83
2023/02/15 00:40:55;;;;;;;42.60;23.25;;;1.90;99.90;;;;;;5034258;28;20441;-83
2023/02/15 00:43:21;;;;;;;41.40;22.83;;;1.90;99.90;;;;;;5033124;28;20387;-83
2023/02/15 00:45:47;;;;;;;38.10;21.40;;;1.90;99.90;;;;;;5034561;28;20025;-82
2023/02/15 00:48:13;;;;;;;44.78;21.63;;;1.90;99.90;;;;;;5033560;28;20021;-83
2023/02/15 00:50:39;;;;;;;37.13;21.77;;;1.90;99.90;;;;;;5033260;28;20024;-83
2023/02/15 00:53:05;;;;;;;38.13;20.50;;;1.90;99.90;;;;;;5033212;28;20076;-83
2023/02/15 00:55:31;;;;;;;41.40;20.98;;;1.90;99.90;;;;;;5033892;28;20028;-82
2023/02/15 00:57:56;;;;;;;36.25;18.70;;;1.90;99.90;;;;;;5034225;28;20433;-82
2023/02/15 01:00:22;;;;;;;38.65;20.40;;;1.90;99.90;;;;;;5033930;28;20025;-82
2023/02/15 01:02:47;;;;;;;37.38;20.05;;;1.90;99.90;;;;;;5033138;28;20030;-82
2023/02/15 01:05:13;;;;;;;37.45;21.13;;;1.90;99.90;;;;;;5032999;28;20371;-82
2023/02/15 01:07:39;;;;;;;31.92;19.95;;;1.90;99.90;;;;;;5033730;28;20025;-84
2023/02/15 01:10:07;;;;;;;37.47;20.23;;;1.90;99.90;;;;;;5033704;28;20033;-83
2023/02/15 01:12:33;;;;;;;38.85;20.20;;;1.90;99.90;;;;;;5033406;28;20037;-84
2023/02/15 01:14:59;;;;;;;37.40;19.52;;;1.90;99.90;;;;;;5032318;28;20029;-83
2023/02/15 01:17:24;;;;;;;42.28;21.52;;;1.90;99.90;;;;;;5014345;28;20499;-80
2023/02/15 01:19:51;;;;;;;41.55;20.92;;;1.90;99.90;;;;;;5013101;28;20049;-82
2023/02/15 01:22:17;;;;;;;42.38;23.85;;;1.90;99.90;;;;;;5014307;28;20029;-81
2023/02/15 01:24:43;;;;;;;41.13;21.13;;;1.90;99.90;;;;;;5012610;28;20022;-82
2023/02/15 01:27:08;;;;;;;39.22;21.55;;;1.90;99.90;;;;;;5014457;28;20032;-79
2023/02/15 01:29:34;;;;;;;37.95;20.25;;;1.90;99.90;;;;;;5014405;28;20030;-80
2023/02/15 01:31:59;;;;;;;36.58;20.02;;;1.90;99.90;;;;;;5014254;28;20116;-80
2023/02/15 01:34:25;;;;;;;37.97;21.02;;;1.80;99.90;;;;;;5013711;28;20105;-80
2023/02/15 01:36:51;;;;;;;36.15;20.98;;;1.80;99.90;;;;;;5029562;28;20030;-80
2023/02/15 01:39:16;;;;;;;39.00;21.00;;;1.80;99.90;;;;;;5014529;28;20034;-81
2023/02/15 01:41:42;;;;;;;40.75;21.83;;;1.70;99.90;;;;;;5012631;28;20050;-82
2023/02/15 01:44:41;;;;;;;42.20;21.60;;;1.80;99.90;;;;;;5013965;28;20033;-82
2023/02/15 01:47:11;;;;;;;43.30;21.27;;;1.80;99.90;;;;;;5012954;28;20479;-82
2023/02/15 01:49:40;;;;;;;42.47;23.48;;;1.80;99.90;;;;;;5013765;28;20025;-82
2023/02/15 01:52:09;;;;;;;41.15;23.05;;;1.80;99.90;;;;;;5012495;28;20065;-81
2023/02/15 01:54:37;;;;;;;42.45;20.65;;;1.90;99.90;;;;;;5013678;28;20022;-82
2023/02/15 01:57:07;;;;;;;39.33;20.98;;;1.90;99.90;;;;;;5013828;28;20029;-82
2023/02/15 01:59:36;;;;;;;36.17;19.30;;;1.90;99.90;;;;;;5014068;28;20022;-82
2023/02/15 02:02:03;;;;;;;36.78;20.92;;;1.80;99.90;;;;;;5013760;28;20101;-82
2023/02/15 02:04:39;;;;;;;39.83;21.42;;;1.90;99.90;;;;;;5013709;28;20100;-82
2023/02/15 02:07:06;;;;;;;40.83;21.67;;;1.90;99.90;;;;;;5013747;28;20079;-82
2023/02/15 02:09:32;;;;;;;50.22;23.58;;;1.80;99.90;;;;;;5012859;28;20056;-82
2023/02/15 02:11:58;;;;;;;36.33;20.83;;;1.80;99.90;;;;;;5029196;28;20042;-82
2023/02/15 02:14:25;;;;;;;40.65;21.98;;;1.80;99.90;;;;;;5013639;28;20037;-82
2023/02/15 02:17:04;;;;;;;41.55;21.73;;;1.70;99.90;;;;;;5028806;28;20065;-82
2023/02/15 02:19:45;;;;;;;38.97;20.83;;;1.70;99.90;;;;;;5011843;28;20030;-82
2023/02/15 02:22:39;;;;;;;37.88;18.80;;;1.60;99.90;;;;;;5013458;28;20160;-82
2023/02/15 02:25:43;;;;;;;38.28;20.13;;;1.60;99.90;;;;;;5012483;28;20041;-82
2023/02/15 02:28:20;;;;;;;37.70;20.23;;;1.60;99.90;;;;;;5013414;28;20076;-82
2023/02/15 02:30:49;;;;;;;37.67;19.65;;;1.60;99.90;;;;;;5011857;28;20483;-82
2023/02/15 02:33:31;;;;;;;37.42;20.52;;;1.50;99.90;;;;;;5013152;28;20042;-82
2023/02/15 02:36:08;;;;;;;35.58;20.92;;;1.50;99.90;;;;;;5013143;28;20034;-81
2023/02/15 02:38:56;;;;;;;38.40;19.58;;;1.50;99.90;;;;;;5013334;28;20475;-82
2023/02/15 02:41:31;;;;;;;42.00;20.20;;;1.50;99.90;;;;;;5011899;28;20112;-82
2023/02/15 02:44:08;;;;;;;43.30;21.73;;;1.50;99.90;;;;;;5011675;28;20417;-82
2023/02/15 02:46:47;;;;;;;40.78;20.70;;;1.50;99.90;;;;;;5011926;28;20446;-82
2023/02/15 02:49:13;;;;;;;42.53;20.83;;;1.50;99.90;;;;;;5013277;28;20037;-82
2023/02/15 02:51:38;;;;;;;34.90;20.90;;;1.50;99.90;;;;;;5028323;28;20487;-82
2023/02/15 02:54:06;;;;;;;39.13;20.02;;;1.50;99.90;;;;;;5028258;28;20029;-82
2023/02/15 02:56:45;;;;;;;41.03;20.23;;;1.50;99.90;;;;;;5012805;28;20464;-82
2023/02/15 02:59:23;;;;;;;41.90;21.15;;;1.50;99.90;;;;;;5012715;28;20561;-82
2023/02/15 03:02:07;;;;;;;42.33;20.33;;;1.50;99.90;;;;;;5012993;28;20030;-82
2023/02/15 03:04:38;;;;;;;34.97;19.60;;;1.50;99.90;;;;;;5012986;28;20076;-83
2023/02/15 03:07:09;;;;;;;43.78;21.33;;;1.50;99.90;;;;;;5013053;28;20029;-82
2023/02/15 03:09:41;;;;;;;41.35;21.77;;;1.40;99.90;;;;;;5012016;28;20026;-82
2023/02/15 03:12:14;;;;;;;40.58;22.15;;;1.40;99.90;;;;;;5013086;28;20041;-82
2023/02/15 03:14:43;;;;;;;42.78;22.73;;;1.40;99.90;;;;;;5011806;28;20028;-82
2023/02/15 03:17:12;;;;;;;43.38;24.05;;;1.40;99.90;;;;;;5012606;28;20021;-83
2023/02/15 03:19:40;;;;;;;44.22;22.65;;;1.30;99.90;;;;;;5012683;28;20041;-82
2023/02/15 03:22:14;;;;;;;45.15;22.23;;;1.40;99.90;;;;;;5027987;28;20021;-81
2023/02/15 03:24:54;;;;;;;38.10;19.88;;;1.30;99.90;;;;;;5013137;28;20106;-82
2023/02/15 03:27:24;;;;;;;37.85;20.88;;;1.30;99.90;;;;;;5012634;28;20029;-82
2023/02/15 03:29:55;;;;;;;42.35;20.67;;;1.30;99.90;;;;;;5011763;28;20476;-81
2023/02/15 03:32:21;;;;;;;45.28;20.80;;;1.30;99.90;;;;;;5015433;28;20029;-81
2023/02/15 03:34:47;;;;;;;36.80;20.90;;;1.20;99.90;;;;;;5016838;28;20108;-82
2023/02/15 03:37:33;;;;;;;42.72;21.35;;;1.20;99.90;;;;;;5015484;28;20109;-81
2023/02/15 03:42:53;;;;;;;41.40;21.08;;;1.20;99.90;;;;;;5016252;28;20521;-81
2023/02/15 03:45:27;;;;;;;42.15;22.52;;;1.20;99.90;;;;;;5016371;28;20033;-82
2023/02/15 03:47:54;;;;;;;43.58;22.38;;;1.20;99.90;;;;;;5031750;28;20022;-82
2023/02/15 03:53:13;;;;;;;41.42;21.67;;;1.20;99.90;;;;;;5015679;28;20045;-84
2023/02/15 03:55:39;;;;;;;43.13;21.30;;;1.20;99.90;;;;;;5015139;28;20456;-84
2023/02/15 04:03:53;;;;;;;52.28;26.13;;;1.10;99.90;;;;;;5016204;28;20033;-82
2023/02/15 04:06:19;;;;;;;54.65;27.40;;;1.20;99.90;;;;;;5016110;28;20022;-83
2023/02/15 04:11:29;;;;;;;51.17;24.13;;;1.20;99.90;;;;;;5015913;28;20103;-82
2023/02/15 04:13:56;;;;;;;45.22;23.35;;;1.20;99.90;;;;;;5015640;28;20034;-82
2023/02/15 04:16:23;;;;;;;41.85;21.55;;;1.10;99.90;;;;;;5015743;28;20022;-82
2023/02/15 04:27:03;;;;;;;44.92;22.10;;;1.00;99.90;;;;;;5015973;28;20045;-82
2023/02/15 04:29:29;;;;;;;41.75;20.63;;;1.00;99.90;;;;;;5015567;28;20033;-81
2023/02/15 04:31:56;;;;;;;39.47;19.75;;;1.00;99.90;;;;;;5015376;28;20042;-82
2023/02/15 04:34:22;;;;;;;45.67;22.42;;;1.00;99.90;;;;;;5015504;28;20048;-81
2023/02/15 04:36:47;;;;;;;44.70;22.00;;;0.90;99.90;;;;;;5014053;28;20025;-81
2023/02/15 04:39:14;;;;;;;42.63;20.35;;;0.90;99.90;;;;;;5015349;28;20026;-81
2023/02/15 04:41:40;;;;;;;47.90;21.23;;;0.90;99.90;;;;;;5013664;28;20057;-81
2023/02/15 04:44:06;;;;;;;42.95;23.00;;;0.80;99.90;;;;;;5015407;28;20024;-81
2023/02/15 04:46:32;;;;;;;45.67;22.50;;;0.90;99.90;;;;;;5015031;28;20473;-81
2023/02/15 04:48:58;;;;;;;44.15;21.50;;;0.80;99.90;;;;;;5015456;28;20037;-79
2023/02/15 04:51:24;;;;;;;44.40;22.45;;;0.80;99.90;;;;;;5014838;28;20117;-80
2023/02/15 04:53:52;;;;;;;46.60;22.17;;;0.80;99.90;;;;;;5030290;28;20034;-79
2023/02/15 04:56:18;;;;;;;52.42;24.17;;;0.90;99.90;;;;;;5014940;28;20072;-79
2023/02/15 04:58:44;;;;;;;51.97;25.67;;;0.90;99.90;;;;;;4994820;28;20113;-81
2023/02/15 05:01:10;;;;;;;50.65;22.77;;;0.90;99.90;;;;;;4995206;28;20054;-80
2023/02/15 05:03:36;;;;;;;45.45;22.83;;;0.90;99.90;;;;;;4995044;28;20030;-81
2023/02/15 05:06:02;;;;;;;45.47;22.75;;;1.00;99.90;;;;;;4993783;28;20106;-81
2023/02/15 05:08:28;;;;;;;49.78;24.00;;;1.00;99.90;;;;;;4995109;28;20458;-80
2023/02/15 05:10:54;;;;;;;51.60;24.63;;;1.00;99.90;;;;;;4995248;28;20110;-81
2023/02/15 05:13:20;;;;;;;41.45;21.98;;;1.00;99.90;;;;;;4993558;28;20031;-81
2023/02/15 05:15:49;;;;;;;48.13;24.75;;;1.00;99.90;;;;;;4994761;28;20029;-80
2023/02/15 05:18:16;;;;;;;47.45;24.27;;;1.00;99.90;;;;;;4994742;28;20046;-81
2023/02/15 05:20:42;;;;;;;39.88;20.30;;;1.00;99.90;;;;;;4995013;28;20023;-80
2023/02/15 05:23:08;;;;;;;42.42;21.77;;;0.90;99.90;;;;;;4994709;28;20033;-80
2023/02/15 05:28:21;;;;;;;38.70;20.17;;;0.80;99.90;;;;;;4994751;28;20041;-82
2023/02/15 05:31:07;;;;;;;45.97;21.90;;;0.80;99.90;;;;;;4995039;28;20030;-81
2023/02/15 05:33:33;;;;;;;40.28;21.85;;;0.80;99.90;;;;;;5000501;28;20403;-80
2023/02/15 05:35:59;;;;;;;38.33;19.20;;;0.70;99.90;;;;;;4999984;28;20022;-81
2023/02/15 05:38:25;;;;;;;40.55;20.50;;;0.70;99.90;;;;;;4994610;28;20384;-80
2023/02/15 05:40:51;;;;;;;47.83;20.85;;;0.70;99.90;;;;;;4993021;28;20132;-81
2023/02/15 05:43:17;;;;;;;45.78;22.27;;;0.70;99.90;;;;;;4991117;28;20030;-81
2023/02/15 05:45:47;;;;;;;41.75;20.80;;;0.80;99.90;;;;;;4994344;28;20023;-80
2023/02/15 05:48:13;;;;;;;43.08;20.63;;;0.70;99.90;;;;;;4994385;28;20387;-81
2023/02/15 05:50:39;;;;;;;43.28;21.30;;;0.70;99.90;;;;;;4992851;28;20014;-81
2023/02/15 05:53:04;;;;;;;48.72;23.17;;;0.70;99.90;;;;;;4993092;28;20479;-81
2023/02/15 05:55:30;;;;;;;41.05;21.40;;;0.70;99.90;;;;;;4992966;28;20464;-81
2023/02/15 05:57:56;;;;;;;41.65;20.88;;;0.70;99.90;;;;;;4994055;28;20026;-81
2023/02/15 06:00:21;;;;;;;45.83;21.17;;;0.70;99.90;;;;;;4992471;28;20085;-81
2023/02/15 06:02:47;;;;;;;41.15;21.80;;;0.70;99.90;;;;;;5009278;28;20022;-81
2023/02/15 06:05:13;;;;;;;45.90;23.05;;;0.60;99.90;;;;;;4993801;28;20033;-80
2023/02/15 06:07:38;;;;;;;42.78;21.85;;;0.70;99.90;;;;;;4992940;28;20023;-81
2023/02/15 06:10:05;;;;;;;47.92;22.70;;;0.70;99.90;;;;;;4991083;28;20038;-81
2023/02/15 06:12:31;;;;;;;44.80;20.98;;;0.60;99.90;;;;;;4993098;28;20042;-80
2023/02/15 06:14:56;;;;;;;38.75;19.38;;;0.60;99.90;;;;;;4993882;28;20095;-81
2023/02/15 06:17:22;;;;;;;39.20;21.27;;;0.70;99.90;;;;;;4993222;28;20033;-81
2023/02/15 06:19:48;;;;;;;49.28;24.25;;;0.60;99.90;;;;;;4993560;28;20037;-81
2023/02/15 06:22:16;;;;;;;43.72;21.77;;;0.60;99.90;;;;;;4991871;28;20019;-81
2023/02/15 06:24:42;;;;;;;42.78;22.23;;;0.60;99.90;;;;;;4992150;28;20034;-81
2023/02/15 06:27:09;;;;;;;42.88;21.23;;;0.60;99.90;;;;;;4992126;28;20105;-81
2023/02/15 06:29:35;;;;;;;40.80;21.67;;;0.60;99.90;;;;;;4992218;28;20113;-81
2023/02/15 06:32:01;;;;;;;48.97;22.30;;;0.60;99.90;;;;;;4993116;28;20857;-81
2023/02/15 06:34:27;;;;;;;48.85;23.17;;;0.60;99.90;;;;;;4993263;28;20109;-81
2023/02/15 06:36:52;;;;;;;46.53;23.95;;;0.60;99.90;;;;;;4991984;28;20108;-80
2023/02/15 06:39:18;;;;;;;276.60;93.13;;;0.60;99.90;;;;;;4992371;28;20027;-81
2023/02/15 06:41:43;;;;;;;273.00;92.78;;;0.60;99.90;;;;;;4992189;28;20054;-81
2023/02/15 06:44:09;;;;;;;384.65;129.35;;;0.60;99.90;;;;;;4989804;28;20065;-81
2023/02/15 06:46:35;;;;;;;322.60;112.60;;;0.70;99.90;;;;;;4992147;28;20037;-81
2023/02/15 06:49:01;;;;;;;124.95;51.90;;;0.70;99.90;;;;;;4989453;28;20026;-80
2023/02/15 06:51:26;;;;;;;124.72;50.40;;;0.70;99.90;;;;;;4989975;28;20499;-80
2023/02/15 06:53:52;;;;;;;50.72;24.77;;;0.80;99.90;;;;;;4990982;28;20097;-80
2023/02/15 06:56:18;;;;;;;51.95;24.05;;;0.80;99.90;;;;;;4990493;28;20023;-80
2023/02/15 06:58:45;;;;;;;50.08;23.60;;;0.80;99.90;;;;;;4989394;28;20023;-81
2023/02/15 07:01:12;;;;;;;84.28;38.88;;;0.90;99.90;;;;;;4990953;28;20070;-81
2023/02/15 07:03:37;;;;;;;73.38;34.17;;;0.80;99.90;;;;;;4991349;28;20053;-81
2023/02/15 07:06:07;;;;;;;46.35;23.67;;;0.90;99.90;;;;;;4996042;28;20357;-80
2023/02/15 07:08:34;;;;;;;47.30;20.45;;;0.90;99.90;;;;;;4995109;28;20014;-80
2023/02/15 07:13:46;;;;;;;46.00;21.48;;;0.80;99.90;;;;;;4976806;28;20138;-79
2023/02/15 07:16:12;;;;;;;46.58;23.52;;;0.70;99.90;;;;;;4976378;28;20110;-80
2023/02/15 07:18:38;;;;;;;47.58;25.45;;;0.70;99.90;;;;;;4976434;28;20065;-80
2023/02/15 07:21:07;;;;;;;51.60;23.73;;;0.70;99.90;;;;;;4978052;28;20023;-80
2023/02/15 07:23:34;;;;;;;47.40;23.35;;;0.70;99.90;;;;;;4978256;28;20094;-80
2023/02/15 07:26:01;;;;;;;46.35;21.67;;;0.70;99.90;;;;;;4966604;28;20027;-80
2023/02/15 07:28:27;;;;;;;54.97;24.38;;;0.80;99.90;;;;;;4995236;28;20117;-79
2023/02/15 07:30:53;;;;;;;51.63;23.60;;;0.80;99.90;;;;;;4996487;28;20022;-79
2023/02/15 07:33:26;;;;;;;53.50;23.70;;;0.90;99.90;;;;;;4996979;28;20034;-80
2023/02/15 07:36:00;;;;;;;52.67;23.58;;;0.90;99.90;;;;;;4997140;28;20089;-79
2023/02/15 07:38:30;;;;;;;52.33;26.73;;;0.80;99.90;;;;;;4996736;28;20064;-80
2023/02/15 07:41:02;;;;;;;51.38;24.27;;;0.80;99.90;;;;;;4996886;28;20058;-80
2023/02/15 07:43:29;;;;;;;54.53;23.85;;;0.90;99.90;;;;;;4996928;28;20384;-80
2023/02/15 07:46:02;;;;;;;59.90;29.55;;;0.80;99.90;;;;;;4997230;28;20027;-80
2023/02/15 07:48:28;;;;;;;58.03;27.48;;;0.80;99.90;;;;;;4994997;28;20472;-80
2023/02/15 07:50:53;;;;;;;51.58;25.20;;;0.90;99.90;;;;;;4995784;28;20056;-80
2023/02/15 07:53:19;;;;;;;57.00;26.90;;;0.90;99.90;;;;;;4996097;28;20034;-80
2023/02/15 07:55:45;;;;;;;62.58;28.88;;;0.90;99.90;;;;;;4995792;28;20030;-80
2023/02/15 07:58:10;;;;;;;68.40;32.40;;;0.90;99.90;;;;;;4994715;28;20022;-80
2023/02/15 08:00:56;;;;;;;56.58;28.67;;;0.90;99.90;;;;;;4995020;28;20014;-80
2023/02/15 08:03:28;;;;;;;66.38;29.70;;;1.00;99.90;;;;;;4995496;28;20109;-80
2023/02/15 08:05:58;;;;;;;;;;;1.00;99.90;;;;;;4996928;28;20030;-80
2023/02/15 08:08:30;;;;;;;58.45;27.15;;;1.00;99.90;;;;;;4996737;28;19925;-79
2023/02/15 08:13:54;;;;;;;57.65;26.02;;;0.90;99.90;;;;;;4996306;28;20455;-80
2023/02/15 08:16:21;;;;;;;108.97;45.60;;;0.90;99.90;;;;;;4994640;28;20054;-80
2023/02/15 08:18:47;;;;;;;72.43;33.17;;;1.00;99.90;;;;;;4995896;28;20026;-80
2023/02/15 08:21:13;;;;;;;66.80;29.98;;;1.00;99.90;;;;;;4993275;28;20521;-80
2023/02/15 08:23:39;;;;;;;57.45;26.40;;;1.00;99.90;;;;;;4993033;28;20546;-79
2023/02/15 08:26:04;;;;;;;52.08;26.02;;;1.10;99.90;;;;;;4993000;28;20058;-80
2023/02/15 08:28:31;;;;;;;56.50;28.35;;;1.10;99.90;;;;;;4992942;28;20029;-79
2023/02/15 08:31:04;;;;;;;92.88;37.60;;;1.10;99.90;;;;;;4994174;28;20526;-80
2023/02/15 08:33:30;;;;;;;57.63;28.45;;;1.10;99.90;;;;;;4993940;28;20031;-80
2023/02/15 08:35:56;;;;;;;98.95;44.58;;;1.10;99.90;;;;;;4994646;28;20053;-80
2023/02/15 08:38:21;;;;;;;55.20;28.50;;;1.10;99.90;;;;;;4996040;28;20030;-80
2023/02/15 08:40:47;;;;;;;59.67;29.27;;;1.20;99.90;;;;;;4996327;28;20050;-80
2023/02/15 08:43:12;;;;;;;55.78;27.88;;;1.20;99.90;;;;;;4995915;28;20400;-80
2023/02/15 08:45:38;;;;;;;55.72;25.60;;;1.20;99.90;;;;;;4995925;28;20030;-80
2023/02/15 08:48:04;;;;;;;54.25;26.90;;;1.30;99.90;;;;;;4994697;28;20030;-80
2023/02/15 08:50:29;;;;;;;62.22;27.83;;;1.30;99.90;;;;;;4996121;28;20102;-80
2023/02/15 08:52:56;;;;;;;109.03;46.97;;;1.30;99.90;;;;;;4994386;28;20046;-80
2023/02/15 08:55:21;;;;;;;60.28;29.80;;;1.40;99.90;;;;;;4994690;28;20022;-80
2023/02/15 08:57:47;;;;;;;49.40;24.67;;;1.50;99.90;;;;;;4995951;28;20027;-80
2023/02/15 09:00:14;;;;;;;46.47;24.58;;;1.50;99.90;;;;;;4994581;28;20069;-80
2023/02/15 09:02:39;;;;;;;69.45;31.90;;;1.60;99.90;;;;;;4995690;28;20031;-80
2023/02/15 09:05:05;;;;;;;97.82;43.15;;;1.60;99.90;;;;;;4995653;28;20445;-80
2023/02/15 09:07:31;;;;;;;59.25;28.58;;;1.70;99.90;;;;;;4995531;28;20027;-80
2023/02/15 09:09:57;;;;;;;67.35;35.33;;;1.80;99.90;;;;;;4995332;28;20161;-80
2023/02/15 09:12:22;;;;;;;69.40;33.78;;;1.90;99.90;;;;;;4994130;28;20088;-80
2023/02/15 09:14:48;;;;;;;55.65;26.75;;;1.90;99.90;;;;;;4995340;28;20061;-80
2023/02/15 09:17:13;;;;;;;49.47;24.38;;;1.90;99.90;;;;;;4995183;28;20026;-80
2023/02/15 09:19:39;;;;;;;57.95;25.50;;;1.90;99.90;;;;;;4995281;28;20504;-80
2023/02/15 09:22:05;;;;;;;59.90;25.50;;;2.00;99.90;;;;;;4995290;28;20053;-80
2023/02/15 09:24:33;;;;;;;46.60;24.60;;;1.90;99.90;;;;;;4995598;28;20022;-80
2023/02/15 09:26:59;;;;;;;51.60;24.60;;;1.90;99.90;;;;;;4995120;28;20045;-79
2023/02/15 09:29:24;;;;;;;54.08;26.30;;;2.00;99.90;;;;;;4995036;28;20034;-80
2023/02/15 09:31:51;;;;;;;57.20;25.60;;;2.00;99.90;;;;;;4994866;28;20125;-80
2023/02/15 09:34:18;;;;;;;50.97;24.38;;;2.00;99.90;;;;;;4995328;28;20029;-80
2023/02/15 09:36:45;;;;;;;57.88;26.05;;;2.00;99.90;;;;;;4994776;28;20032;-80
2023/02/15 09:39:12;;;;;;;44.45;25.42;;;2.10;99.90;;;;;;4993859;28;20019;-80
2023/02/15 09:41:53;;;;;;;55.22;25.77;;;2.10;99.90;;;;;;4994644;28;20058;-80
2023/02/15 09:44:31;;;;;;;46.80;25.10;;;2.20;99.90;;;;;;4993785;28;20034;-80
2023/02/15 09:47:11;;;;;;;50.25;25.00;;;2.20;99.90;;;;;;4994839;28;20114;-80
2023/02/15 09:49:49;;;;;;;51.25;24.00;;;2.30;99.90;;;;;;4994661;28;20027;-80
2023/02/15 09:52:59;;;;;;;50.47;24.45;;;2.40;99.90;;;;;;4995078;28;20411;-80
2023/02/15 09:55:48;;;;;;;52.35;25.90;;;2.40;99.90;;;;;;4994661;28;20034;-80
2023/02/15 09:58:20;;;;;;;49.90;25.48;;;2.50;99.90;;;;;;4994877;28;20387;-81
2023/02/15 10:01:02;;;;;;;49.13;23.15;;;2.70;99.90;;;;;;4993041;28;20030;-79
2023/02/15 10:03:37;;;;;;;54.58;25.90;;;2.80;99.90;;;;;;4994584;28;20384;-80
2023/02/15 10:06:24;;;;;;;44.90;23.77;;;3.10;99.90;;;;;;4993625;28;20034;-80
2023/02/15 10:09:28;;;;;;;44.83;22.90;;;3.20;99.90;;;;;;4992726;28;20407;-80
2023/02/15 10:12:05;;;;;;;44.17;23.02;;;3.30;99.90;;;;;;4992467;28;20053;-80
2023/02/15 10:14:56;;;;;;;49.95;23.27;;;3.50;99.90;;;;;;4994127;28;20033;-80
2023/02/15 10:17:37;;;;;;;45.92;24.42;;;3.50;99.90;;;;;;4994006;28;20026;-80
2023/02/15 10:20:27;;;;;;;43.22;22.73;;;3.80;99.90;;;;;;5012483;28;20458;-81
2023/02/15 10:23:08;;;;;;;43.35;22.33;;;3.90;99.90;;;;;;5012886;28;20026;-80
2023/02/15 10:25:50;;;;;;;47.17;23.75;;;4.00;99.90;;;;;;5012879;28;20101;-80
2023/02/15 10:28:19;;;;;;;41.08;21.25;;;4.10;99.90;;;;;;5013082;28;20053;-81
2023/02/15 10:30:53;;;;;;;45.60;23.08;;;4.00;99.90;;;;;;5013064;28;20030;-81
2023/02/15 10:33:31;;;;;;;46.22;23.38;;;4.00;99.90;;;;;;5011516;28;20083;-81
2023/02/15 10:36:06;;;;;;;47.10;23.02;;;3.90;99.90;;;;;;5012772;28;20026;-80
2023/02/15 10:38:52;;;;;;;40.40;21.38;;;3.80;99.90;;;;;;5012273;28;20022;-81
2023/02/15 10:41:52;;;;;;;44.22;22.20;;;3.70;99.90;;;;;;5011497;28;20557;-81
2023/02/15 10:44:54;;;;;;;41.40;21.15;;;3.80;99.90;;;;;;5012602;28;20084;-81
2023/02/15 10:47:25;;;;;;;44.15;23.38;;;3.80;99.90;;;;;;5010037;28;20069;-81
2023/02/15 10:50:13;;;;;;;39.45;22.05;;;3.70;99.90;;;;;;5011991;28;20022;-81
2023/02/15 10:53:02;;;;;;;40.60;21.23;;;3.60;99.90;;;;;;5012731;28;20549;-81
2023/02/15 10:55:34;;;;;;;44.38;21.38;;;3.60;99.90;;;;;;4996186;28;20098;-81
2023/02/15 10:58:10;;;;;;;39.03;21.30;;;3.50;99.90;;;;;;4993853;28;20034;-81
2023/02/15 11:00:46;;;;;;;41.45;21.27;;;3.50;99.90;;;;;;4993240;28;20023;-80
2023/02/15 11:03:41;;;;;;;42.45;21.80;;;3.40;99.90;;;;;;4992877;28;20022;-81
2023/02/15 11:06:12;;;;;;;40.58;20.42;;;3.40;99.90;;;;;;4991663;28;20019;-81
2023/02/15 11:09:12;;;;;;;40.53;20.52;;;3.50;99.90;;;;;;4993299;28;20495;-81
2023/02/15 11:11:41;;;;;;;40.65;20.58;;;3.40;99.90;;;;;;4983930;28;20100;-81
2023/02/15 11:14:32;;;;;;;39.30;20.80;;;3.40;99.90;;;;;;4993210;28;20025;-82
2023/02/15 11:17:05;;;;;;;39.50;21.02;;;3.40;99.90;;;;;;4993336;28;20030;-81
2023/02/15 11:19:50;;;;;;;41.83;21.85;;;3.50;99.90;;;;;;4992256;28;20018;-81
2023/02/15 11:22:15;;;;;;;44.53;22.00;;;3.60;99.90;;;;;;4992144;28;20034;-80
2023/02/15 11:24:44;;;;;;;42.50;20.98;;;3.70;99.90;;;;;;5008432;28;20398;-81
2023/02/15 11:27:21;;;;;;;36.83;19.42;;;3.70;99.90;;;;;;4991891;28;20029;-81
2023/02/15 11:30:04;;;;;;;41.33;20.85;;;3.70;99.90;;;;;;4992934;28;20022;-81
2023/02/15 11:32:37;;;;;;;35.88;19.65;;;3.70;99.90;;;;;;4993167;28;20495;-80
2023/02/15 11:35:06;;;;;;;39.17;20.30;;;3.70;99.90;;;;;;4991682;28;20045;-81
2023/02/15 11:38:13;;;;;;;41.28;20.40;;;3.70;99.90;;;;;;4993047;28;20101;-81
2023/02/15 11:41:09;;;;;;;37.70;20.38;;;3.80;99.90;;;;;;4992938;28;20023;-81
2023/02/15 11:43:48;;;;;;;36.53;19.40;;;3.80;99.90;;;;;;4991722;28;20030;-81
2023/02/15 11:46:14;;;;;;;39.33;19.02;;;3.90;99.90;;;;;;4991721;28;20427;-81
2023/02/15 11:48:41;;;;;;;38.17;20.35;;;3.90;99.90;;;;;;4991947;28;20029;-81
2023/02/15 11:51:14;;;;;;;37.95;19.35;;;3.90;99.90;;;;;;4992580;28;20019;-81
2023/02/15 11:53:39;;;;;;;36.88;19.17;;;3.90;99.90;;;;;;4996942;28;20399;-82
2023/02/15 11:56:16;;;;;;;37.95;19.67;;;4.00;99.90;;;;;;4995136;28;20026;-81
2023/02/15 11:58:55;;;;;;;33.90;18.60;;;4.10;99.90;;;;;;4996857;28;20027;-82
2023/02/15 12:01:31;;;;;;;41.00;20.58;;;4.10;99.90;;;;;;4996752;28;20026;-81
2023/02/15 12:04:10;;;;;;;39.42;21.00;;;4.20;99.90;;;;;;4996266;28;20026;-81
2023/02/15 12:06:43;;;;;;;37.50;20.30;;;4.20;99.90;;;;;;4996196;28;20047;-82
2023/02/15 12:09:20;;;;;;;38.75;19.33;;;4.30;99.90;;;;;;4992799;28;20033;-81
2023/02/15 12:11:46;;;;;;;37.85;20.30;;;4.30;99.90;;;;;;4992236;28;20030;-81
2023/02/15 12:14:15;;;;;;;37.03;19.60;;;4.40;99.90;;;;;;4994643;28;20070;-81
2023/02/15 12:16:50;;;;;;;35.28;18.65;;;4.40;99.90;;;;;;4993783;28;20018;-81
2023/02/15 12:19:37;;;;;;;40.83;20.88;;;4.40;99.90;;;;;;4996228;28;20375;-81
2023/02/15 12:22:05;;;;;;;36.80;20.80;;;4.50;99.90;;;;;;4994881;28;20018;-82
2023/02/15 12:24:34;;;;;;;38.00;20.92;;;4.60;99.90;;;;;;4994465;28;20149;-81
2023/02/15 12:27:04;;;;;;;38.10;20.73;;;4.70;99.90;;;;;;4993193;28;20097;-81
2023/02/15 12:29:53;;;;;;;35.17;20.25;;;4.70;99.90;;;;;;4994387;28;20029;-81
2023/02/15 12:32:53;;;;;;;36.15;19.88;;;4.80;99.90;;;;;;4993010;28;20112;-81
2023/02/15 12:35:28;;;;;;;43.90;22.48;;;4.80;99.90;;;;;;4990293;28;20014;-82
2023/02/15 12:38:00;;;;;;;38.80;19.95;;;4.80;99.90;;;;;;4984758;28;20047;-82
2023/02/15 12:40:33;;;;;;;39.30;21.20;;;4.80;99.90;;;;;;4993523;28;20506;-81
2023/02/15 12:43:00;;;;;;;39.65;21.13;;;4.90;99.90;;;;;;4993801;28;20496;-81
2023/02/15 12:45:31;;;;;;;35.13;20.55;;;4.90;99.90;;;;;;4993964;28;20075;-81
2023/02/15 12:48:15;;;;;;;38.72;19.95;;;4.90;99.90;;;;;;4994331;28;20092;-81
2023/02/15 12:50:49;;;;;;;40.17;20.33;;;4.90;99.90;;;;;;4992296;28;20080;-80
2023/02/15 12:53:29;;;;;;;40.33;20.90;;;5.00;99.90;;;;;;4993371;28;20042;-81
2023/02/15 12:56:04;;;;;;;43.03;22.63;;;5.10;99.90;;;;;;4992421;28;20042;-82
2023/02/15 12:58:32;;;;;;;39.20;21.73;;;5.10;99.90;;;;;;4993938;28;20715;-82
2023/02/15 13:01:11;;;;;;;41.53;22.63;;;5.20;99.90;;;;;;4992478;28;20038;-82
2023/02/15 13:03:49;;;;;;;40.85;21.75;;;5.20;99.90;;;;;;4991261;28;20069;-81
2023/02/15 13:06:18;;;;;;;43.33;22.45;;;5.20;98.30;;;;;;5000227;28;20498;-82
2023/02/15 13:08:50;;;;;;;36.58;21.17;;;5.20;98.30;;;;;;5012584;28;20383;-82
2023/02/15 13:11:34;;;;;;;43.33;21.10;;;5.20;98.20;;;;;;5011723;28;20034;-82
2023/02/15 13:14:02;;;;;;;41.80;22.75;;;5.20;97.30;;;;;;5012528;28;20072;-82
2023/02/15 13:16:31;;;;;;;39.40;21.45;;;5.30;98.30;;;;;;5011808;28;20068;-82
2023/02/15 13:18:58;;;;;;;41.08;22.55;;;5.30;97.20;;;;;;5013430;28;20029;-82
2023/02/15 13:21:35;;;;;;;42.05;20.95;;;5.30;97.50;;;;;;5012773;28;20057;-82
2023/02/15 13:24:06;;;;;;;40.55;21.35;;;5.30;96.10;;;;;;5012862;28;20471;-82
2023/02/15 13:26:34;;;;;;;41.72;21.27;;;5.30;95.40;;;;;;5010175;28;20038;-81
2023/02/15 13:29:11;;;;;;;39.22;22.15;;;5.40;96.90;;;;;;4992477;28;20495;-83